Avoca, Indiana
Current Conditions -  °F | °C
As of 4:53 PM on Friday 19 Dec 2014 (Local Time) from KBMG Reporting Station
Overcast Overcast  
Wind Chill: 32°   Ceiling: 2500
Heat Index: 32°   Visibility: 10mi
Dew Point: 23°   Wind: 3mph
Humidity: 69%   Direction: 50°NE
Pressure: 30.29"   Gusts: NA
Location:  38.91°N, 86.55°W
Report Text: KBMG 192153Z 05003KT 10SM OVC025 00/M05 A3029 RMK AO2 SLP266 T00001050
Loading
Personal Weather Stations






























Interactive Weather Map New forecast layout! Learn more

10-Day Weather Forecast

Advertisements
Track Severe Weather on mobile